sensor_id;sensor_type;location;lat;lon;timestamp;pressure;altitude;pressure_sealevel;temperature;humidity
12913;BME280;6524;51.368;11.984;2023-04-30T04:00:40;101001.38;;;3.98;65.22
12913;BME280;6524;51.368;11.984;2023-04-30T04:05:41;101005.94;;;4.21;64.71
12913;BME280;6524;51.368;11.984;2023-04-30T04:10:41;101012.59;;;4.02;65.26
12913;BME280;6524;51.368;11.984;2023-04-30T04:15:42;101025.22;;;3.88;65.96
12913;BME280;6524;51.368;11.984;2023-04-30T04:20:42;101026.47;;;4.04;65.93
12913;BME280;6524;51.368;11.984;2023-04-30T04:25:42;101026.94;;;4.18;65.75
12913;BME280;6524;51.368;11.984;2023-04-30T04:30:43;101043.28;;;4.26;65.05
12913;BME280;6524;51.368;11.984;2023-04-30T04:35:43;101041.00;;;4.44;64.95
12913;BME280;6524;51.368;11.984;2023-04-30T04:40:52;101046.22;;;4.44;65.43
12913;BME280;6524;51.368;11.984;2023-04-30T04:45:53;101052.34;;;4.44;65.40
12913;BME280;6524;51.368;11.984;2023-04-30T04:50:53;101055.25;;;4.34;65.38
12913;BME280;6524;51.368;11.984;2023-04-30T04:55:53;101069.06;;;4.39;64.70
12913;BME280;6524;51.368;11.984;2023-04-30T05:00:54;101074.81;;;4.50;64.24
12913;BME280;6524;51.368;11.984;2023-04-30T05:05:54;101082.81;;;5.03;62.69
12913;BME280;6524;51.368;11.984;2023-04-30T05:10:55;101089.97;;;5.26;62.06
12913;BME280;6524;51.368;11.984;2023-04-30T05:15:56;101092.19;;;5.65;61.49
12913;BME280;6524;51.368;11.984;2023-04-30T05:20:56;101085.97;;;6.18;59.63
12913;BME280;6524;51.368;11.984;2023-04-30T05:25:56;101086.63;;;5.99;58.97
12913;BME280;6524;51.368;11.984;2023-04-30T05:30:56;101107.69;;;5.71;60.59
12913;BME280;6524;51.368;11.984;2023-04-30T05:35:59;101106.22;;;5.89;59.40
12913;BME280;6524;51.368;11.984;2023-04-30T05:41:20;101108.97;;;6.34;58.37
12913;BME280;6524;51.368;11.984;2023-04-30T05:46:20;101112.78;;;6.49;57.82
12913;BME280;6524;51.368;11.984;2023-04-30T05:51:21;101111.88;;;6.50;57.48
12913;BME280;6524;51.368;11.984;2023-04-30T05:56:21;101106.06;;;6.42;58.09
12913;BME280;6524;51.368;11.984;2023-04-30T06:01:23;101097.66;;;6.57;57.74
12913;BME280;6524;51.368;11.984;2023-04-30T06:06:24;101107.84;;;6.89;56.23
12913;BME280;6524;51.368;11.984;2023-04-30T06:11:24;101115.47;;;6.73;55.42
12913;BME280;6524;51.368;11.984;2023-04-30T06:16:25;101111.44;;;6.63;55.48
12913;BME280;6524;51.368;11.984;2023-04-30T06:21:25;101119.31;;;6.63;56.00
12913;BME280;6524;51.368;11.984;2023-04-30T06:26:26;101119.53;;;6.56;55.98
12913;BME280;6524;51.368;11.984;2023-04-30T06:31:27;101118.19;;;6.70;55.61
12913;BME280;6524;51.368;11.984;2023-04-30T06:36:27;101124.50;;;7.54;54.50
12913;BME280;6524;51.368;11.984;2023-04-30T06:41:28;101125.09;;;7.82;53.81
12913;BME280;6524;51.368;11.984;2023-04-30T06:46:28;101125.97;;;7.61;53.03
12913;BME280;6524;51.368;11.984;2023-04-30T06:51:29;101112.81;;;8.03;51.96
12913;BME280;6524;51.368;11.984;2023-04-30T06:56:30;101113.75;;;9.17;50.50
12913;BME280;6524;51.368;11.984;2023-04-30T07:01:30;101120.19;;;9.65;48.44
12913;BME280;6524;51.368;11.984;2023-04-30T07:06:31;101129.84;;;9.84;46.92
12913;BME280;6524;51.368;11.984;2023-04-30T07:11:31;101132.44;;;10.01;45.95
12913;BME280;6524;51.368;11.984;2023-04-30T07:16:32;101137.84;;;12.05;42.54
12913;BME280;6524;51.368;11.984;2023-04-30T07:21:32;101141.84;;;15.19;35.59
12913;BME280;6524;51.368;11.984;2023-04-30T07:26:32;101144.97;;;14.63;36.51
12913;BME280;6524;51.368;11.984;2023-04-30T07:31:33;101130.03;;;13.71;36.68
12913;BME280;6524;51.368;11.984;2023-04-30T07:36:33;101135.34;;;14.99;34.14
12913;BME280;6524;51.368;11.984;2023-04-30T07:41:33;101137.16;;;15.70;33.92
12913;BME280;6524;51.368;11.984;2023-04-30T07:46:34;101132.38;;;14.78;34.42
12913;BME280;6524;51.368;11.984;2023-04-30T07:51:40;101148.13;;;14.68;33.55
12913;BME280;6524;51.368;11.984;2023-04-30T07:56:43;101150.38;;;14.61;31.63
12913;BME280;6524;51.368;11.984;2023-04-30T08:01:48;101144.50;;;14.95;31.29
12913;BME280;6524;51.368;11.984;2023-04-30T08:07:25;101143.84;;;15.04;30.33
12913;BME280;6524;51.368;11.984;2023-04-30T08:13:23;101142.75;;;14.18;31.96
12913;BME280;6524;51.368;11.984;2023-04-30T08:18:24;101145.03;;;15.48;31.49
12913;BME280;6524;51.368;11.984;2023-04-30T08:23:25;101150.59;;;16.04;31.38
12913;BME280;6524;51.368;11.984;2023-04-30T08:28:25;101154.94;;;15.46;30.87
12913;BME280;6524;51.368;11.984;2023-04-30T08:33:26;101153.59;;;15.99;30.85
12913;BME280;6524;51.368;11.984;2023-04-30T08:38:27;101145.78;;;16.65;29.82
12913;BME280;6524;51.368;11.984;2023-04-30T08:43:28;101148.88;;;16.03;30.52
12913;BME280;6524;51.368;11.984;2023-04-30T08:48:30;101143.72;;;16.80;29.90
12913;BME280;6524;51.368;11.984;2023-04-30T08:53:35;101140.88;;;15.92;29.98
12913;BME280;6524;51.368;11.984;2023-04-30T08:58:46;101147.50;;;16.44;29.59
12913;BME280;6524;51.368;11.984;2023-04-30T09:03:47;101145.72;;;15.98;29.67
12913;BME280;6524;51.368;11.984;2023-04-30T09:08:48;101143.47;;;15.56;28.16
12913;BME280;6524;51.368;11.984;2023-04-30T09:13:50;101136.97;;;17.31;26.26
12913;BME280;6524;51.368;11.984;2023-04-30T09:18:52;101137.81;;;17.64;26.76
12913;BME280;6524;51.368;11.984;2023-04-30T09:23:53;101136.47;;;16.82;27.98
12913;BME280;6524;51.368;11.984;2023-04-30T09:28:55;101139.78;;;17.50;27.45
12913;BME280;6524;51.368;11.984;2023-04-30T09:33:59;101143.94;;;17.54;26.96
12913;BME280;6524;51.368;11.984;2023-04-30T09:39:06;101135.22;;;17.41;28.15
12913;BME280;6524;51.368;11.984;2023-04-30T09:44:25;101141.63;;;17.50;26.79
12913;BME280;6524;51.368;11.984;2023-04-30T09:49:26;101144.34;;;18.13;25.55
12913;BME280;6524;51.368;11.984;2023-04-30T09:54:29;101142.81;;;17.89;26.23
12913;BME280;6524;51.368;11.984;2023-04-30T09:59:31;101145.13;;;18.03;25.64
12913;BME280;6524;51.368;11.984;2023-04-30T10:04:36;101127.78;;;18.80;24.95
12913;BME280;6524;51.368;11.984;2023-04-30T10:14:51;101120.28;;;18.74;25.51
12913;BME280;6524;51.368;11.984;2023-04-30T10:19:56;101130.81;;;18.66;24.10
12913;BME280;6524;51.368;11.984;2023-04-30T10:24:58;101124.13;;;17.78;24.68
12913;BME280;6524;51.368;11.984;2023-04-30T10:30:01;101121.41;;;18.41;25.82
12913;BME280;6524;51.368;11.984;2023-04-30T10:40:17;101104.63;;;17.66;24.59
12913;BME280;6524;51.368;11.984;2023-04-30T10:45:18;101099.91;;;18.83;22.64
12913;BME280;6524;51.368;11.984;2023-04-30T10:50:22;101091.88;;;18.42;25.52
12913;BME280;6524;51.368;11.984;2023-04-30T10:55:22;101084.78;;;18.62;24.18
12913;BME280;6524;51.368;11.984;2023-04-30T11:46:55;101041.19;;;19.20;23.41
12913;BME280;6524;51.368;11.984;2023-04-30T11:51:55;101039.94;;;19.34;23.91
12913;BME280;6524;51.368;11.984;2023-04-30T11:56:56;101040.56;;;19.75;22.98
12913;BME280;6524;51.368;11.984;2023-04-30T12:02:03;101034.56;;;19.05;21.52
12913;BME280;6524;51.368;11.984;2023-04-30T12:07:06;101040.78;;;19.15;21.89
12913;BME280;6524;51.368;11.984;2023-04-30T12:12:08;101033.41;;;18.97;23.25
12913;BME280;6524;51.368;11.984;2023-04-30T12:17:08;101034.41;;;19.35;21.71
12913;BME280;6524;51.368;11.984;2023-04-30T12:22:08;101032.19;;;19.21;22.80
12913;BME280;6524;51.368;11.984;2023-04-30T12:27:09;101023.09;;;19.61;23.14
12913;BME280;6524;51.368;11.984;2023-04-30T12:32:09;101025.22;;;18.70;21.04
12913;BME280;6524;51.368;11.984;2023-04-30T12:37:09;101016.19;;;19.68;23.00
12913;BME280;6524;51.368;11.984;2023-04-30T12:42:10;101013.06;;;20.10;23.09
12913;BME280;6524;51.368;11.984;2023-04-30T12:47:11;101010.81;;;19.78;23.41
12913;BME280;6524;51.368;11.984;2023-04-30T12:52:12;101005.22;;;19.32;23.25
12913;BME280;6524;51.368;11.984;2023-04-30T12:57:13;101002.22;;;19.64;23.91
12913;BME280;6524;51.368;11.984;2023-04-30T13:02:13;100995.38;;;19.04;24.39
12913;BME280;6524;51.368;11.984;2023-04-30T13:07:13;100994.22;;;19.45;24.56
12913;BME280;6524;51.368;11.984;2023-04-30T13:12:14;100984.94;;;19.39;24.13
12913;BME280;6524;51.368;11.984;2023-04-30T13:17:15;100985.53;;;19.33;25.35
12913;BME280;6524;51.368;11.984;2023-04-30T13:22:15;100978.19;;;18.77;24.40
12913;BME280;6524;51.368;11.984;2023-04-30T13:27:15;100974.47;;;18.39;24.05
12913;BME280;6524;51.368;11.984;2023-04-30T13:32:16;100972.94;;;18.46;23.25
12913;BME280;6524;51.368;11.984;2023-04-30T13:37:16;100962.97;;;18.48;23.48
12913;BME280;6524;51.368;11.984;2023-04-30T13:42:16;100966.34;;;18.50;23.35
12913;BME280;6524;51.368;11.984;2023-04-30T13:47:17;100966.78;;;18.05;23.20
12913;BME280;6524;51.368;11.984;2023-04-30T13:52:17;100965.41;;;18.11;24.33
12913;BME280;6524;51.368;11.984;2023-04-30T13:57:18;100957.13;;;17.83;23.85
12913;BME280;6524;51.368;11.984;2023-04-30T14:02:18;100957.50;;;17.79;23.67
12913;BME280;6524;51.368;11.984;2023-04-30T14:07:19;100955.00;;;18.18;23.51
12913;BME280;6524;51.368;11.984;2023-04-30T14:12:20;100952.41;;;17.76;23.59
12913;BME280;6524;51.368;11.984;2023-04-30T14:17:20;100953.06;;;17.58;23.38
12913;BME280;6524;51.368;11.984;2023-04-30T14:22:21;100949.75;;;17.45;23.67
12913;BME280;6524;51.368;11.984;2023-04-30T14:27:21;100951.94;;;16.98;23.85
12913;BME280;6524;51.368;11.984;2023-04-30T14:32:24;100942.25;;;16.65;23.44
12913;BME280;6524;51.368;11.984;2023-04-30T14:37:25;100936.28;;;17.26;22.49
12913;BME280;6524;51.368;11.984;2023-04-30T14:42:26;100930.59;;;16.45;22.78
12913;BME280;6524;51.368;11.984;2023-04-30T14:47:27;100917.56;;;16.08;23.80
12913;BME280;6524;51.368;11.984;2023-04-30T14:52:27;100927.19;;;16.43;25.19
12913;BME280;6524;51.368;11.984;2023-04-30T14:57:27;100919.88;;;15.90;24.30
12913;BME280;6524;51.368;11.984;2023-04-30T15:02:28;100919.31;;;15.75;25.27
12913;BME280;6524;51.368;11.984;2023-04-30T15:07:29;100921.66;;;15.56;24.70
12913;BME280;6524;51.368;11.984;2023-04-30T15:12:30;100910.78;;;15.48;24.51
12913;BME280;6524;51.368;11.984;2023-04-30T15:17:30;100906.88;;;15.18;24.56
12913;BME280;6524;51.368;11.984;2023-04-30T15:22:33;100901.69;;;15.28;24.89
12913;BME280;6524;51.368;11.984;2023-04-30T15:27:34;100903.09;;;14.74;24.88
12913;BME280;6524;51.368;11.984;2023-04-30T15:32:35;100903.84;;;14.52;25.82
12913;BME280;6524;51.368;11.984;2023-04-30T15:37:36;100898.75;;;14.49;25.68
12913;BME280;6524;51.368;11.984;2023-04-30T15:42:36;100907.53;;;14.38;25.49
12913;BME280;6524;51.368;11.984;2023-04-30T15:47:37;100896.84;;;14.86;26.37
12913;BME280;6524;51.368;11.984;2023-04-30T15:52:38;100896.56;;;14.67;26.35
12913;BME280;6524;51.368;11.984;2023-04-30T15:57:38;100895.91;;;14.28;26.02
12913;BME280;6524;51.368;11.984;2023-04-30T16:02:38;100895.63;;;14.07;25.71
12913;BME280;6524;51.368;11.984;2023-04-30T16:07:40;100893.19;;;14.17;27.12
12913;BME280;6524;51.368;11.984;2023-04-30T16:12:41;100883.34;;;14.30;26.75
12913;BME280;6524;51.368;11.984;2023-04-30T16:17:41;100878.25;;;14.27;26.93
12913;BME280;6524;51.368;11.984;2023-04-30T16:22:41;100877.97;;;13.82;28.05
12913;BME280;6524;51.368;11.984;2023-04-30T16:27:42;100872.56;;;13.71;27.30
12913;BME280;6524;51.368;11.984;2023-04-30T16:32:45;100871.41;;;13.49;27.12
12913;BME280;6524;51.368;11.984;2023-04-30T16:37:45;100865.25;;;13.62;27.17
12913;BME280;6524;51.368;11.984;2023-04-30T16:42:46;100860.81;;;13.49;28.01
12913;BME280;6524;51.368;11.984;2023-04-30T16:47:46;100860.59;;;13.27;29.19
12913;BME280;6524;51.368;11.984;2023-04-30T16:52:48;100857.22;;;13.38;29.35
12913;BME280;6524;51.368;11.984;2023-04-30T16:57:52;100846.81;;;13.22;28.02
12913;BME280;6524;51.368;11.984;2023-04-30T17:02:53;100847.63;;;13.61;28.00
12913;BME280;6524;51.368;11.984;2023-04-30T17:07:53;100833.78;;;13.44;27.68
12913;BME280;6524;51.368;11.984;2023-04-30T17:12:55;100836.41;;;13.44;28.24
12913;BME280;6524;51.368;11.984;2023-04-30T17:17:58;100825.38;;;13.25;29.08
12913;BME280;6524;51.368;11.984;2023-04-30T17:22:58;100832.31;;;13.40;27.93
12913;BME280;6524;51.368;11.984;2023-04-30T17:27:59;100837.25;;;12.81;27.96
12913;BME280;6524;51.368;11.984;2023-04-30T17:33:00;100834.91;;;12.89;28.19
12913;BME280;6524;51.368;11.984;2023-04-30T17:38:01;100844.88;;;12.73;29.71
12913;BME280;6524;51.368;11.984;2023-04-30T17:43:01;100840.66;;;13.09;28.85
12913;BME280;6524;51.368;11.984;2023-04-30T17:48:02;100840.75;;;12.82;30.15
12913;BME280;6524;51.368;11.984;2023-04-30T17:53:02;100836.47;;;12.53;30.14
12913;BME280;6524;51.368;11.984;2023-04-30T17:58:03;100837.78;;;12.46;30.58
12913;BME280;6524;51.368;11.984;2023-04-30T18:03:03;100836.41;;;12.14;30.63
12913;BME280;6524;51.368;11.984;2023-04-30T18:08:05;100832.50;;;11.92;30.79
12913;BME280;6524;51.368;11.984;2023-04-30T18:13:05;100834.44;;;11.76;31.94
12913;BME280;6524;51.368;11.984;2023-04-30T18:18:07;100832.31;;;11.95;31.45
12913;BME280;6524;51.368;11.984;2023-04-30T18:23:07;100830.16;;;11.87;31.79
12913;BME280;6524;51.368;11.984;2023-04-30T18:28:09;100821.59;;;11.84;32.54
12913;BME280;6524;51.368;11.984;2023-04-30T18:33:09;100823.66;;;11.79;33.72
12913;BME280;6524;51.368;11.984;2023-04-30T18:38:09;100825.00;;;11.72;33.92
12913;BME280;6524;51.368;11.984;2023-04-30T18:43:10;100824.63;;;11.21;34.87
12913;BME280;6524;51.368;11.984;2023-04-30T18:48:10;100821.41;;;10.87;37.37
12913;BME280;6524;51.368;11.984;2023-04-30T18:53:11;100816.69;;;10.78;37.26
12913;BME280;6524;51.368;11.984;2023-04-30T18:58:12;100832.25;;;10.52;37.10
12913;BME280;6524;51.368;11.984;2023-04-30T19:03:12;100824.78;;;10.29;35.68
12913;BME280;6524;51.368;11.984;2023-04-30T19:08:13;100839.81;;;9.96;37.38
12913;BME280;6524;51.368;11.984;2023-04-30T19:13:14;100835.34;;;10.29;37.05
12913;BME280;6524;51.368;11.984;2023-04-30T19:18:15;100835.56;;;9.94;37.01
12913;BME280;6524;51.368;11.984;2023-04-30T19:23:16;100832.69;;;9.33;39.26
12913;BME280;6524;51.368;11.984;2023-04-30T19:28:17;100842.47;;;9.47;38.74
12913;BME280;6524;51.368;11.984;2023-04-30T19:33:17;100836.44;;;9.12;39.27
12913;BME280;6524;51.368;11.984;2023-04-30T19:38:18;100835.31;;;9.00;40.05
12913;BME280;6524;51.368;11.984;2023-04-30T19:43:23;100827.81;;;8.93;41.12
12913;BME280;6524;51.368;11.984;2023-04-30T19:48:24;100835.72;;;8.93;39.88
12913;BME280;6524;51.368;11.984;2023-04-30T19:53:25;100839.25;;;8.39;42.46
12913;BME280;6524;51.368;11.984;2023-04-30T19:58:26;100839.69;;;8.48;42.15
12913;BME280;6524;51.368;11.984;2023-04-30T20:03:26;100838.22;;;8.25;42.65
12913;BME280;6524;51.368;11.984;2023-04-30T20:08:27;100833.63;;;8.28;42.83
12913;BME280;6524;51.368;11.984;2023-04-30T20:13:28;100846.84;;;8.09;41.51
12913;BME280;6524;51.368;11.984;2023-04-30T20:18:28;100838.13;;;8.26;43.44
12913;BME280;6524;51.368;11.984;2023-04-30T20:23:28;100834.09;;;8.19;42.36
12913;BME280;6524;51.368;11.984;2023-04-30T20:28:29;100837.00;;;8.13;42.74
12913;BME280;6524;51.368;11.984;2023-04-30T20:33:29;100828.81;;;8.02;42.46
12913;BME280;6524;51.368;11.984;2023-04-30T20:38:30;100825.69;;;7.93;42.99
12913;BME280;6524;51.368;11.984;2023-04-30T20:43:30;100822.91;;;7.96;42.48
12913;BME280;6524;51.368;11.984;2023-04-30T20:48:30;100820.66;;;7.70;44.11
12913;BME280;6524;51.368;11.984;2023-04-30T20:53:31;100818.50;;;7.59;44.89
12913;BME280;6524;51.368;11.984;2023-04-30T20:58:31;100808.41;;;7.50;44.72
12913;BME280;6524;51.368;11.984;2023-04-30T21:03:31;100802.84;;;7.56;44.89
12913;BME280;6524;51.368;11.984;2023-04-30T21:08:32;100797.31;;;7.24;45.69
12913;BME280;6524;51.368;11.984;2023-04-30T21:13:32;100805.97;;;7.08;43.90
12913;BME280;6524;51.368;11.984;2023-04-30T21:18:33;100800.56;;;6.90;44.04
12913;BME280;6524;51.368;11.984;2023-04-30T21:23:34;100794.97;;;7.37;42.50
12913;BME280;6524;51.368;11.984;2023-04-30T21:28:35;100796.09;;;7.32;43.77
12913;BME280;6524;51.368;11.984;2023-04-30T21:33:36;100796.63;;;7.40;43.27
12913;BME280;6524;51.368;11.984;2023-04-30T21:38:37;100784.69;;;7.52;42.52
12913;BME280;6524;51.368;11.984;2023-04-30T21:43:37;100797.47;;;7.40;42.54
12913;BME280;6524;51.368;11.984;2023-04-30T21:48:38;100785.41;;;7.36;42.93
12913;BME280;6524;51.368;11.984;2023-04-30T21:53:40;100793.75;;;7.44;44.61
12913;BME280;6524;51.368;11.984;2023-04-30T21:58:41;100791.78;;;7.49;44.50
12913;BME280;6524;51.368;11.984;2023-04-30T22:03:41;100789.41;;;7.06;46.56
12913;BME280;6524;51.368;11.984;2023-04-30T22:08:42;100796.63;;;7.00;45.97
12913;BME280;6524;51.368;11.984;2023-04-30T22:13:42;100803.59;;;6.81;47.25
12913;BME280;6524;51.368;11.984;2023-04-30T22:18:42;100812.09;;;6.67;46.83
12913;BME280;6524;51.368;11.984;2023-04-30T22:23:43;100806.84;;;6.45;48.28
12913;BME280;6524;51.368;11.984;2023-04-30T22:28:43;100806.41;;;6.14;49.34
12913;BME280;6524;51.368;11.984;2023-04-30T22:33:44;100796.28;;;6.04;49.86
12913;BME280;6524;51.368;11.984;2023-04-30T22:38:45;100797.31;;;6.00;49.97
12913;BME280;6524;51.368;11.984;2023-04-30T22:43:45;100798.59;;;5.90;50.41
12913;BME280;6524;51.368;11.984;2023-04-30T22:48:46;100800.41;;;5.66;51.58
12913;BME280;6524;51.368;11.984;2023-04-30T22:53:47;100803.91;;;5.43;51.51
12913;BME280;6524;51.368;11.984;2023-04-30T22:58:47;100797.84;;;5.17;52.58
12913;BME280;6524;51.368;11.984;2023-04-30T23:03:47;100797.22;;;5.11;52.86
12913;BME280;6524;51.368;11.984;2023-04-30T23:08:48;100794.34;;;4.93;53.59
12913;BME280;6524;51.368;11.984;2023-04-30T23:13:49;100788.56;;;4.84;53.40
12913;BME280;6524;51.368;11.984;2023-04-30T23:18:49;100790.41;;;4.82;53.34
12913;BME280;6524;51.368;11.984;2023-04-30T23:23:49;100790.63;;;4.76;53.74
12913;BME280;6524;51.368;11.984;2023-04-30T23:28:50;100784.28;;;4.56;54.57
12913;BME280;6524;51.368;11.984;2023-04-30T23:33:50;100779.06;;;4.56;53.74
12913;BME280;6524;51.368;11.984;2023-04-30T23:38:50;100773.50;;;4.65;54.34
12913;BME280;6524;51.368;11.984;2023-04-30T23:43:52;100762.34;;;4.09;55.38
12913;BME280;6524;51.368;11.984;2023-04-30T23:48:52;100755.16;;;4.42;55.60
12913;BME280;6524;51.368;11.984;2023-04-30T23:53:52;100758.84;;;4.61;54.17
12913;BME280;6524;51.368;11.984;2023-04-30T23:58:53;100755.91;;;4.70;54.09
